Time,TemperatureF,DewpointF,PressureIn,WindDirection,WindDirectionDegrees,WindSpeedMPH,WindSpeedGustMPH,Humidity,HourlyPrecipIn,Conditions,Clouds,dailyrainin,SolarRadiationWatts/m^2,SoftwareType,DateUTC
2013-05-21 00:02:00,71.2,69.4,30.01,ENE,71,0.0,0.0,94,0.00,,,0.00,0.0,meteohub,2013-05-21 04:02:00,
2013-05-21 00:08:00,71.2,69.4,30.00,ENE,71,0.0,0.0,94,0.00,,,0.00,0.0,meteohub,2013-05-21 04:08:00,
2013-05-21 00:14:00,71.1,69.3,30.00,ENE,73,0.0,1.0,94,0.00,,,0.00,0.0,meteohub,2013-05-21 04:14:00,
2013-05-21 00:17:00,71.1,69.3,30.00,ENE,72,0.0,1.0,94,0.00,,,0.00,0.0,meteohub,2013-05-21 04:17:00,
2013-05-21 00:22:00,71.1,69.3,29.99,ENE,73,0.0,1.0,94,0.00,,,0.00,0.0,meteohub,2013-05-21 04:22:00,
2013-05-21 00:27:00,71.1,69.3,29.99,ENE,73,0.0,1.0,94,0.00,,,0.00,0.0,meteohub,2013-05-21 04:27:00,
2013-05-21 00:33:00,71.1,69.3,29.99,ENE,73,0.0,1.0,94,0.00,,,0.00,0.0,meteohub,2013-05-21 04:33:00,
2013-05-21 00:39:00,70.9,69.1,30.00,ENE,73,0.0,1.0,94,0.00,,,0.00,0.0,meteohub,2013-05-21 04:39:00,
2013-05-21 00:46:00,70.9,69.1,30.00,ENE,73,0.0,1.0,94,0.00,,,0.00,0.0,meteohub,2013-05-21 04:46:00,
2013-05-21 00:52:00,70.7,68.9,30.01,ENE,73,0.0,1.0,94,0.00,,,0.00,0.0,meteohub,2013-05-21 04:52:00,
2013-05-21 00:57:00,70.5,68.7,30.01,ENE,73,0.0,1.0,94,0.00,,,0.00,0.0,meteohub,2013-05-21 04:57:00,
2013-05-21 01:04:00,70.3,68.5,30.01,ENE,73,0.0,1.0,94,0.00,,,0.00,0.0,meteohub,2013-05-21 05:04:00,
2013-05-21 01:10:00,70.3,68.5,30.01,ENE,73,0.0,0.0,94,0.00,,,0.00,0.0,meteohub,2013-05-21 05:10:00,
2013-05-21 01:17:00,70.2,68.7,30.01,ENE,73,0.0,0.0,95,0.00,,,0.00,0.0,meteohub,2013-05-21 05:17:00,
2013-05-21 01:23:00,70.2,68.4,30.01,ENE,73,0.0,0.0,94,0.00,,,0.00,0.0,meteohub,2013-05-21 05:23:00,
2013-05-21 01:29:00,70.0,68.2,30.01,ENE,73,0.0,0.0,94,0.00,,,0.00,0.0,meteohub,2013-05-21 05:29:00,
2013-05-21 01:35:00,69.8,68.0,30.00,ENE,73,0.0,0.0,94,0.00,,,0.00,0.0,meteohub,2013-05-21 05:35:00,
2013-05-21 01:41:00,69.6,67.8,30.00,ENE,73,0.0,0.0,94,0.00,,,0.00,0.0,meteohub,2013-05-21 05:41:00,
2013-05-21 01:47:00,69.4,68.0,30.00,ENE,73,0.0,0.0,95,0.00,,,0.00,0.0,meteohub,2013-05-21 05:47:00,
2013-05-21 01:52:00,69.4,68.0,30.00,ENE,73,0.0,0.0,95,0.00,,,0.00,0.0,meteohub,2013-05-21 05:52:00,
2013-05-21 01:57:00,69.3,67.5,29.99,ENE,73,0.0,0.0,94,0.00,,,0.00,0.0,meteohub,2013-05-21 05:57:00,
2013-05-21 02:02:00,69.3,67.5,29.99,ENE,73,0.0,0.0,94,0.00,,,0.00,0.0,meteohub,2013-05-21 06:02:00,
2013-05-21 02:09:00,69.1,67.6,30.00,ENE,73,0.0,0.0,95,0.00,,,0.00,0.0,meteohub,2013-05-21 06:09:00,
2013-05-21 02:15:00,68.9,67.5,29.99,ENE,73,0.0,0.0,95,0.00,,,0.00,0.0,meteohub,2013-05-21 06:15:00,
2013-05-21 02:22:00,68.7,67.3,30.00,ENE,73,0.0,0.0,95,0.00,,,0.00,0.0,meteohub,2013-05-21 06:22:00,
2013-05-21 02:28:00,68.5,66.7,30.00,ENE,73,0.0,0.0,94,0.00,,,0.00,0.0,meteohub,2013-05-21 06:28:00,
2013-05-21 02:34:00,68.5,66.7,30.00,ENE,73,0.0,0.0,94,0.00,,,0.00,0.0,meteohub,2013-05-21 06:34:00,
2013-05-21 02:40:00,68.4,66.9,30.00,ENE,73,0.0,0.0,95,0.00,,,0.00,0.0,meteohub,2013-05-21 06:40:00,
2013-05-21 02:47:00,68.2,66.7,30.00,ENE,73,0.0,0.0,95,0.00,,,0.00,0.0,meteohub,2013-05-21 06:47:00,
2013-05-21 02:52:00,68.2,66.4,29.99,ENE,73,0.0,0.0,94,0.00,,,0.00,0.0,meteohub,2013-05-21 06:52:00,
2013-05-21 02:59:00,67.8,66.0,29.99,ENE,73,0.0,0.0,94,0.00,,,0.00,0.0,meteohub,2013-05-21 06:59:00,
2013-05-21 03:05:00,67.8,66.0,29.99,ENE,73,0.0,0.0,94,0.00,,,0.00,0.0,meteohub,2013-05-21 07:05:00,
2013-05-21 03:11:00,67.6,66.2,29.99,ENE,73,0.0,0.0,95,0.00,,,0.00,0.0,meteohub,2013-05-21 07:11:00,
2013-05-21 03:17:00,67.5,66.0,29.99,ENE,73,0.0,0.0,95,0.00,,,0.00,0.0,meteohub,2013-05-21 07:17:00,
2013-05-21 03:22:00,67.5,66.0,30.00,ENE,73,0.0,0.0,95,0.00,,,0.00,0.0,meteohub,2013-05-21 07:22:00,
2013-05-21 03:27:00,67.5,65.7,29.99,ENE,73,0.0,0.0,94,0.00,,,0.00,0.0,meteohub,2013-05-21 07:27:00,
2013-05-21 03:32:00,67.3,65.8,29.99,ENE,73,0.0,0.0,95,0.00,,,0.00,0.0,meteohub,2013-05-21 07:32:00,
2013-05-21 03:37:00,67.3,65.8,29.99,ENE,73,0.0,0.0,95,0.00,,,0.00,0.0,meteohub,2013-05-21 07:37:00,
2013-05-21 03:42:00,67.3,65.8,29.99,ENE,73,0.0,0.0,95,0.00,,,0.00,0.0,meteohub,2013-05-21 07:42:00,
2013-05-21 03:47:00,67.3,65.8,29.99,ENE,73,0.0,0.0,95,0.00,,,0.00,0.0,meteohub,2013-05-21 07:47:00,
2013-05-21 03:52:00,67.1,65.7,29.99,ENE,73,0.0,0.0,95,0.00,,,0.00,0.0,meteohub,2013-05-21 07:52:00,
2013-05-21 03:57:00,66.9,65.5,29.99,ENE,73,0.0,0.0,95,0.00,,,0.00,0.0,meteohub,2013-05-21 07:57:00,
2013-05-21 04:02:00,67.1,65.7,29.99,ENE,73,0.0,0.0,95,0.00,,,0.00,0.0,meteohub,2013-05-21 08:02:00,
2013-05-21 04:07:00,66.9,65.5,29.99,ENE,73,0.0,0.0,95,0.00,,,0.00,0.0,meteohub,2013-05-21 08:07:00,
2013-05-21 04:12:00,66.9,65.5,29.99,ENE,73,0.0,0.0,95,0.00,,,0.00,0.0,meteohub,2013-05-21 08:12:00,
2013-05-21 04:17:00,66.9,65.5,30.00,ENE,73,0.0,0.0,95,0.00,,,0.00,0.0,meteohub,2013-05-21 08:17:00,
2013-05-21 04:22:00,66.9,65.5,30.00,ENE,73,0.0,0.0,95,0.00,,,0.00,0.0,meteohub,2013-05-21 08:22:00,
2013-05-21 04:27:00,66.9,65.5,30.00,ENE,73,0.0,0.0,95,0.00,,,0.00,0.0,meteohub,2013-05-21 08:27:00,
2013-05-21 04:32:00,66.7,65.3,30.00,ENE,73,0.0,0.0,95,0.00,,,0.00,0.0,meteohub,2013-05-21 08:32:00,
2013-05-21 04:37:00,66.7,65.3,30.00,ENE,73,0.0,0.0,95,0.00,,,0.00,0.0,meteohub,2013-05-21 08:37:00,
2013-05-21 04:42:00,66.7,65.3,30.00,ENE,73,0.0,0.0,95,0.00,,,0.00,0.0,meteohub,2013-05-21 08:42:00,
2013-05-21 04:47:00,66.7,65.3,30.00,ENE,73,0.0,0.0,95,0.00,,,0.00,0.0,meteohub,2013-05-21 08:47:00,
2013-05-21 04:53:00,66.7,65.3,30.00,ENE,73,0.0,0.0,95,0.00,,,0.00,0.0,meteohub,2013-05-21 08:53:00,
2013-05-21 04:59:00,66.7,65.3,30.00,ENE,73,0.0,0.0,95,0.00,,,0.00,0.0,meteohub,2013-05-21 08:59:00,
2013-05-21 05:06:00,66.7,65.3,30.00,ENE,73,0.0,0.0,95,0.00,,,0.00,0.0,meteohub,2013-05-21 09:06:00,
2013-05-21 05:12:00,66.7,65.3,30.01,ENE,73,0.0,0.0,95,0.00,,,0.00,0.0,meteohub,2013-05-21 09:12:00,
2013-05-21 05:17:00,66.6,65.1,30.01,ENE,73,0.0,0.0,95,0.00,,,0.00,0.0,meteohub,2013-05-21 09:17:00,
2013-05-21 05:24:00,66.6,65.1,30.01,ENE,73,0.0,0.0,95,0.00,,,0.00,0.0,meteohub,2013-05-21 09:24:00,
2013-05-21 05:31:00,66.6,65.1,30.01,ENE,73,0.0,0.0,95,0.00,,,0.00,0.0,meteohub,2013-05-21 09:31:00,
2013-05-21 05:37:00,66.6,65.1,30.01,ENE,73,0.0,0.0,95,0.00,,,0.00,0.0,meteohub,2013-05-21 09:37:00,
2013-05-21 05:43:00,66.7,65.5,30.01,ENE,73,0.0,0.0,96,0.00,,,0.00,0.0,meteohub,2013-05-21 09:43:00,
2013-05-21 05:49:00,66.7,65.5,30.01,ENE,73,0.0,0.0,96,0.00,,,0.00,0.0,meteohub,2013-05-21 09:49:00,
2013-05-21 05:55:00,66.7,65.5,30.02,ENE,73,0.0,0.0,96,0.00,,,0.00,0.0,meteohub,2013-05-21 09:55:00,
2013-05-21 06:02:00,66.7,65.5,30.01,ENE,73,0.0,0.0,96,0.00,,,0.00,0.0,meteohub,2013-05-21 10:02:00,
2013-05-21 06:07:00,66.7,65.5,30.02,ENE,73,0.0,0.0,96,0.00,,,0.00,0.0,meteohub,2013-05-21 10:07:00,
2013-05-21 06:12:00,66.7,65.5,30.01,ENE,73,0.0,0.0,96,0.00,,,0.00,0.0,meteohub,2013-05-21 10:12:00,
2013-05-21 06:17:00,66.7,65.5,30.02,ENE,73,0.0,0.0,96,0.00,,,0.00,0.0,meteohub,2013-05-21 10:17:00,
2013-05-21 06:23:00,66.7,65.5,30.02,ENE,73,0.0,0.0,96,0.00,,,0.00,0.0,meteohub,2013-05-21 10:23:00,
2013-05-21 06:30:00,66.7,65.5,30.03,ENE,73,0.0,0.0,96,0.00,,,0.00,0.0,meteohub,2013-05-21 10:30:00,
2013-05-21 06:36:00,66.9,65.7,30.03,ENE,73,0.0,0.0,96,0.00,,,0.00,0.0,meteohub,2013-05-21 10:36:00,
2013-05-21 06:42:00,66.9,65.7,30.03,ENE,73,0.0,0.0,96,0.00,,,0.00,0.0,meteohub,2013-05-21 10:42:00,
2013-05-21 06:47:00,66.9,65.7,30.03,ENE,73,0.0,0.0,96,0.00,,,0.00,5.0,meteohub,2013-05-21 10:47:00,
2013-05-21 06:52:00,66.9,65.7,30.03,ENE,73,0.0,0.0,96,0.00,,,0.00,12.0,meteohub,2013-05-21 10:52:00,
2013-05-21 06:57:00,66.9,65.7,30.03,ENE,73,0.0,0.0,96,0.00,,,0.00,14.0,meteohub,2013-05-21 10:57:00,
2013-05-21 07:04:00,66.9,65.7,30.04,ENE,73,0.0,0.0,96,0.00,,,0.00,19.0,meteohub,2013-05-21 11:04:00,
2013-05-21 07:10:00,66.9,65.7,30.03,ENE,73,0.0,0.0,96,0.00,,,0.00,23.0,meteohub,2013-05-21 11:10:00,
2013-05-21 07:16:00,66.9,65.7,30.03,ESE,111,0.0,0.0,96,0.00,,,0.00,28.0,meteohub,2013-05-21 11:16:00,
2013-05-21 07:22:00,66.9,65.7,30.03,ESE,111,0.0,0.0,96,0.00,,,0.00,37.0,meteohub,2013-05-21 11:22:00,
2013-05-21 07:27:00,66.9,65.7,30.04,ESE,111,0.0,0.0,96,0.00,,,0.00,60.0,meteohub,2013-05-21 11:27:00,
2013-05-21 07:32:00,67.1,65.8,30.04,ESE,111,0.0,0.0,96,0.00,,,0.00,51.0,meteohub,2013-05-21 11:32:00,
2013-05-21 07:37:00,67.3,66.0,30.04,ESE,111,0.0,1.0,96,0.00,,,0.00,56.0,meteohub,2013-05-21 11:37:00,
2013-05-21 07:44:00,67.6,66.4,30.04,WNW,292,0.0,1.0,96,0.00,,,0.00,65.0,meteohub,2013-05-21 11:44:00,
2013-05-21 07:50:00,67.6,66.4,30.04,NW,311,0.0,0.0,96,0.00,,,0.00,69.0,meteohub,2013-05-21 11:50:00,
2013-05-21 07:57:00,67.8,66.9,30.04,NW,311,0.0,0.0,97,0.00,,,0.00,74.0,meteohub,2013-05-21 11:57:00,
2013-05-21 08:02:00,68.2,67.3,30.04,NW,311,0.0,0.0,97,0.00,,,0.00,77.0,meteohub,2013-05-21 12:02:00,
2013-05-21 08:07:00,68.4,67.5,30.04,NW,321,0.0,0.0,97,0.00,,,0.00,88.0,meteohub,2013-05-21 12:07:00,
2013-05-21 08:12:00,69.1,68.2,30.04,NW,321,0.0,0.0,97,0.00,,,0.00,98.0,meteohub,2013-05-21 12:12:00,
2013-05-21 08:18:00,69.3,68.4,30.04,NW,321,0.0,0.0,97,0.00,,,0.00,105.0,meteohub,2013-05-21 12:18:00,
2013-05-21 08:24:00,69.4,68.2,30.04,NW,321,0.0,0.0,96,0.00,,,0.00,113.0,meteohub,2013-05-21 12:24:00,
2013-05-21 08:31:00,69.4,68.2,30.04,NW,321,0.0,0.0,96,0.00,,,0.00,111.0,meteohub,2013-05-21 12:31:00,
2013-05-21 08:37:00,69.4,68.2,30.04,NW,321,0.0,0.0,96,0.00,,,0.00,114.0,meteohub,2013-05-21 12:37:00,
2013-05-21 08:43:00,69.4,68.2,30.04,NW,321,0.0,0.0,96,0.00,,,0.00,102.0,meteohub,2013-05-21 12:43:00,
2013-05-21 08:49:00,69.6,68.7,30.04,NW,321,0.0,0.0,97,0.00,,,0.00,86.0,meteohub,2013-05-21 12:49:00,
2013-05-21 08:55:00,70.2,68.9,30.04,NW,321,0.0,1.0,96,0.00,,,0.00,74.0,meteohub,2013-05-21 12:55:00,
2013-05-21 09:02:00,70.3,69.4,30.04,NW,321,0.0,1.0,97,0.00,,,0.00,218.0,meteohub,2013-05-21 13:02:00,
2013-05-21 09:07:00,70.7,69.4,30.04,NW,321,0.0,1.0,96,0.00,,,0.00,388.0,meteohub,2013-05-21 13:07:00,
2013-05-21 09:12:00,71.1,69.8,30.04,NW,321,0.0,1.0,96,0.00,,,0.00,404.0,meteohub,2013-05-21 13:12:00,
2013-05-21 09:17:00,72.0,70.5,30.04,NW,321,0.0,1.0,95,0.00,,,0.00,434.0,meteohub,2013-05-21 13:17:00,
2013-05-21 09:22:00,72.9,71.4,30.04,SW,225,0.0,1.0,95,0.00,,,0.00,471.0,meteohub,2013-05-21 13:22:00,
2013-05-21 09:27:00,73.2,71.1,30.04,SW,221,0.0,1.0,93,0.00,,,0.00,501.0,meteohub,2013-05-21 13:27:00,
2013-05-21 09:32:00,74.5,72.3,30.04,SW,221,0.0,1.0,93,0.00,,,0.00,529.0,meteohub,2013-05-21 13:32:00,
2013-05-21 09:37:00,74.7,71.6,30.04,SW,221,0.0,2.0,90,0.00,,,0.00,541.0,meteohub,2013-05-21 13:37:00,
2013-05-21 09:42:00,75.0,71.6,30.04,SW,219,0.0,2.0,89,0.00,,,0.00,536.0,meteohub,2013-05-21 13:42:00,
2013-05-21 09:47:00,75.9,71.4,30.04,SSW,205,0.0,2.0,86,0.00,,,0.00,591.0,meteohub,2013-05-21 13:47:00,
2013-05-21 09:52:00,76.5,71.2,30.04,West,263,1.0,2.0,84,0.00,,,0.00,547.0,meteohub,2013-05-21 13:52:00,
2013-05-21 09:57:00,76.5,71.6,30.04,West,263,0.0,2.0,85,0.00,,,0.00,288.0,meteohub,2013-05-21 13:57:00,
2013-05-21 10:02:00,76.3,71.1,30.05,SSW,200,0.0,3.0,84,0.00,,,0.00,608.0,meteohub,2013-05-21 14:02:00,
2013-05-21 10:07:00,77.4,71.4,30.04,SSW,200,0.0,3.0,82,0.00,,,0.00,659.0,meteohub,2013-05-21 14:07:00,
2013-05-21 10:12:00,77.9,72.0,30.04,SSW,212,3.0,3.0,82,0.00,,,0.00,661.0,meteohub,2013-05-21 14:12:00,
2013-05-21 10:17:00,77.2,71.2,30.04,SSW,212,0.0,2.0,82,0.00,,,0.00,700.0,meteohub,2013-05-21 14:17:00,
2013-05-21 10:22:00,78.3,71.6,30.05,SW,214,0.0,2.0,80,0.00,,,0.00,694.0,meteohub,2013-05-21 14:22:00,
2013-05-21 10:28:00,78.8,71.4,30.05,SW,214,0.0,4.0,78,0.00,,,0.00,715.0,meteohub,2013-05-21 14:28:00,
2013-05-21 10:34:00,79.0,71.6,30.05,SW,214,0.0,4.0,78,0.00,,,0.00,673.0,meteohub,2013-05-21 14:34:00,
2013-05-21 10:40:00,79.5,72.5,30.05,SW,215,0.0,4.0,79,0.00,,,0.00,724.0,meteohub,2013-05-21 14:40:00,
2013-05-21 10:47:00,79.7,71.4,30.05,WNW,283,2.0,3.0,76,0.00,,,0.00,770.0,meteohub,2013-05-21 14:47:00,
2013-05-21 10:52:00,80.1,71.4,30.05,NW,317,0.0,3.0,75,0.00,,,0.00,786.0,meteohub,2013-05-21 14:52:00,
2013-05-21 10:59:00,81.3,72.7,30.05,WSW,251,0.0,3.0,75,0.00,,,0.00,508.0,meteohub,2013-05-21 14:59:00,
2013-05-21 11:05:00,80.8,70.9,30.05,WSW,254,0.0,3.0,72,0.00,,,0.00,826.0,meteohub,2013-05-21 15:05:00,
2013-05-21 11:11:00,80.4,70.2,30.05,SW,232,0.0,2.0,71,0.00,,,0.00,847.0,meteohub,2013-05-21 15:11:00,
2013-05-21 11:17:00,80.4,71.8,30.05,SW,232,0.0,4.0,75,0.00,,,0.00,877.0,meteohub,2013-05-21 15:17:00,
2013-05-21 11:22:00,80.8,72.1,30.04,West,267,2.0,4.0,75,0.00,,,0.00,914.0,meteohub,2013-05-21 15:22:00,
2013-05-21 11:27:00,81.1,70.9,30.05,SSW,203,1.0,4.0,71,0.00,,,0.00,965.0,meteohub,2013-05-21 15:27:00,
2013-05-21 11:32:00,81.7,71.8,30.05,WSW,246,0.0,4.0,72,0.00,,,0.00,940.0,meteohub,2013-05-21 15:32:00,
2013-05-21 11:37:00,81.7,70.9,30.04,South,189,0.0,5.0,70,0.00,,,0.00,963.0,meteohub,2013-05-21 15:37:00,
2013-05-21 11:42:00,82.8,72.9,30.04,SSW,199,0.0,5.0,72,0.00,,,0.00,932.0,meteohub,2013-05-21 15:42:00,
2013-05-21 11:47:00,82.9,72.5,30.04,SSW,198,0.0,4.0,71,0.00,,,0.00,918.0,meteohub,2013-05-21 15:47:00,
2013-05-21 11:52:00,82.6,71.4,30.04,ENE,67,0.0,4.0,69,0.00,,,0.00,932.0,meteohub,2013-05-21 15:52:00,
2013-05-21 11:57:00,82.8,70.7,30.04,SSE,161,0.0,2.0,67,0.00,,,0.00,969.0,meteohub,2013-05-21 15:57:00,
2013-05-21 12:02:00,81.9,71.1,30.04,SSE,167,0.0,2.0,70,0.00,,,0.00,288.0,meteohub,2013-05-21 16:02:00,
2013-05-21 12:07:00,82.4,71.6,30.04,West,263,1.0,4.0,70,0.00,,,0.00,1060.0,meteohub,2013-05-21 16:07:00,
2013-05-21 12:12:00,82.9,72.1,30.04,South,176,0.0,4.0,70,0.00,,,0.00,1127.0,meteohub,2013-05-21 16:12:00,
2013-05-21 12:17:00,83.1,71.4,30.04,SW,232,0.0,3.0,68,0.00,,,0.00,309.0,meteohub,2013-05-21 16:17:00,
2013-05-21 12:22:00,82.8,69.8,30.04,SW,232,0.0,3.0,65,0.00,,,0.00,1063.0,meteohub,2013-05-21 16:22:00,
2013-05-21 12:27:00,82.8,70.2,30.03,SW,234,0.0,3.0,66,0.00,,,0.00,1067.0,meteohub,2013-05-21 16:27:00,
2013-05-21 12:32:00,82.2,70.5,30.03,SW,234,0.0,3.0,68,0.00,,,0.00,248.0,meteohub,2013-05-21 16:32:00,
2013-05-21 12:37:00,82.0,71.2,30.03,SSW,213,0.0,3.0,70,0.00,,,0.00,1053.0,meteohub,2013-05-21 16:37:00,
2013-05-21 12:42:00,82.8,69.8,30.03,South,177,0.0,3.0,65,0.00,,,0.00,1081.0,meteohub,2013-05-21 16:42:00,
2013-05-21 12:47:00,82.4,69.4,30.03,SE,128,0.0,3.0,65,0.00,,,0.00,264.0,meteohub,2013-05-21 16:47:00,
2013-05-21 12:52:00,82.2,70.2,30.03,SE,127,0.0,3.0,67,0.00,,,0.00,295.0,meteohub,2013-05-21 16:52:00,
2013-05-21 12:57:00,82.6,70.5,30.02,NNE,26,0.0,3.0,67,0.00,,,0.00,415.0,meteohub,2013-05-21 16:57:00,
2013-05-21 13:02:00,82.9,70.3,30.02,NE,52,0.0,3.0,66,0.00,,,0.00,301.0,meteohub,2013-05-21 17:02:00,
2013-05-21 13:07:00,83.5,70.9,30.02,NE,50,0.0,3.0,66,0.00,,,0.00,1162.0,meteohub,2013-05-21 17:07:00,
2013-05-21 13:12:00,84.0,71.4,30.02,NE,53,0.0,3.0,66,0.00,,,0.00,1069.0,meteohub,2013-05-21 17:12:00,
2013-05-21 13:17:00,84.7,72.1,30.02,South,182,0.0,3.0,66,0.00,,,0.00,1114.0,meteohub,2013-05-21 17:17:00,
2013-05-21 13:22:00,84.9,72.7,30.01,North,0,1.0,3.0,67,0.00,,,0.00,1132.0,meteohub,2013-05-21 17:22:00,
2013-05-21 13:27:00,84.7,70.7,30.01,South,190,1.0,4.0,63,0.00,,,0.00,1134.0,meteohub,2013-05-21 17:27:00,
2013-05-21 13:32:00,84.6,71.4,30.01,NNE,32,0.0,4.0,65,0.00,,,0.00,218.0,meteohub,2013-05-21 17:32:00,
2013-05-21 13:37:00,83.7,72.0,30.01,ENE,74,0.0,4.0,68,0.00,,,0.00,167.0,meteohub,2013-05-21 17:37:00,
2013-05-21 13:42:00,83.1,72.3,30.02,East,79,1.0,4.0,70,0.00,,,0.00,139.0,meteohub,2013-05-21 17:42:00,
2013-05-21 13:47:00,82.4,72.0,30.02,NNE,22,0.0,4.0,71,0.00,,,0.00,163.0,meteohub,2013-05-21 17:47:00,
2013-05-21 13:52:00,81.0,72.7,30.02,East,79,0.0,4.0,76,0.00,,,0.00,197.0,meteohub,2013-05-21 17:52:00,
2013-05-21 13:57:00,78.8,72.5,30.02,ENE,62,0.0,5.0,81,0.00,,,0.00,162.0,meteohub,2013-05-21 17:57:00,
2013-05-21 14:02:00,77.5,72.7,30.01,ENE,63,1.0,5.0,85,0.00,,,0.01,174.0,meteohub,2013-05-21 18:02:00,
2013-05-21 14:07:00,76.5,72.3,30.01,NE,51,1.0,4.0,87,0.01,,,0.01,200.0,meteohub,2013-05-21 18:07:00,
2013-05-21 14:12:00,75.9,72.9,30.01,NE,51,0.0,4.0,90,0.01,,,0.01,269.0,meteohub,2013-05-21 18:12:00,
2013-05-21 14:17:00,75.7,72.9,30.01,ENE,69,0.0,4.0,91,0.01,,,0.01,362.0,meteohub,2013-05-21 18:17:00,
2013-05-21 14:22:00,76.3,73.8,30.01,ENE,69,0.0,4.0,92,0.01,,,0.01,487.0,meteohub,2013-05-21 18:22:00,
2013-05-21 14:27:00,77.0,74.1,30.01,NE,52,0.0,2.0,91,0.01,,,0.01,687.0,meteohub,2013-05-21 18:27:00,
2013-05-21 14:32:00,77.9,74.5,30.01,ENE,65,0.0,2.0,89,0.01,,,0.01,643.0,meteohub,2013-05-21 18:32:00,
2013-05-21 14:37:00,78.4,74.7,30.01,ENE,71,1.0,6.0,88,0.01,,,0.01,689.0,meteohub,2013-05-21 18:37:00,
2013-05-21 14:44:00,78.3,74.1,30.00,NE,55,0.0,6.0,87,0.01,,,0.01,708.0,meteohub,2013-05-21 18:44:00,
2013-05-21 14:50:00,78.3,75.0,30.00,ENE,58,2.0,6.0,90,0.01,,,0.02,663.0,meteohub,2013-05-21 18:50:00,
2013-05-21 14:57:00,78.1,74.3,30.00,NE,52,0.0,3.0,88,0.02,,,0.02,362.0,meteohub,2013-05-21 18:57:00,
2013-05-21 15:02:00,77.5,73.4,30.00,South,182,0.0,3.0,87,0.02,,,0.02,274.0,meteohub,2013-05-21 19:02:00,
2013-05-21 15:09:00,77.5,73.8,30.00,South,182,1.0,3.0,88,0.01,,,0.02,332.0,meteohub,2013-05-21 19:09:00,
2013-05-21 15:15:00,78.1,74.3,29.99,ESE,106,0.0,2.0,88,0.01,,,0.02,359.0,meteohub,2013-05-21 19:15:00,
2013-05-21 15:22:00,79.2,74.3,29.99,ENE,65,0.0,2.0,85,0.01,,,0.02,700.0,meteohub,2013-05-21 19:22:00,
2013-05-21 15:27:00,80.2,74.3,29.99,SSE,147,2.0,3.0,82,0.01,,,0.02,809.0,meteohub,2013-05-21 19:27:00,
2013-05-21 15:34:00,81.5,74.7,29.99,South,187,3.0,3.0,80,0.01,,,0.02,666.0,meteohub,2013-05-21 19:34:00,
2013-05-21 15:40:00,81.3,73.0,29.99,South,188,0.0,5.0,76,0.01,,,0.02,775.0,meteohub,2013-05-21 19:40:00,
2013-05-21 15:46:00,82.4,74.5,29.99,South,184,0.0,5.0,77,0.01,,,0.02,737.0,meteohub,2013-05-21 19:46:00,
2013-05-21 15:52:00,82.6,73.8,29.98,ENE,61,0.0,5.0,75,0.01,,,0.02,807.0,meteohub,2013-05-21 19:52:00,
2013-05-21 15:57:00,83.1,74.8,29.98,ENE,68,1.0,4.0,76,0.00,,,0.02,831.0,meteohub,2013-05-21 19:57:00,
2013-05-21 16:02:00,83.7,74.1,29.98,ENE,78,1.0,4.0,73,0.00,,,0.02,703.0,meteohub,2013-05-21 20:02:00,
2013-05-21 16:08:00,83.3,73.4,29.99,NE,45,0.0,3.0,72,0.00,,,0.02,715.0,meteohub,2013-05-21 20:08:00,
2013-05-21 16:14:00,83.5,73.6,29.98,SE,138,0.0,3.0,72,0.00,,,0.02,661.0,meteohub,2013-05-21 20:14:00,
2013-05-21 16:20:00,83.8,73.4,29.98,SW,221,0.0,3.0,71,0.00,,,0.02,780.0,meteohub,2013-05-21 20:20:00,
2013-05-21 16:26:00,83.8,73.0,29.98,South,184,0.0,4.0,70,0.00,,,0.02,635.0,meteohub,2013-05-21 20:26:00,
2013-05-21 16:32:00,83.5,73.6,29.97,South,184,0.0,4.0,72,0.00,,,0.02,517.0,meteohub,2013-05-21 20:32:00,
2013-05-21 16:39:00,83.1,72.7,29.97,South,180,1.0,6.0,71,0.00,,,0.02,494.0,meteohub,2013-05-21 20:39:00,
2013-05-21 16:45:00,83.1,72.7,29.97,SSW,213,0.0,6.0,71,0.00,,,0.02,506.0,meteohub,2013-05-21 20:45:00,
2013-05-21 16:51:00,83.5,71.8,29.96,South,187,1.0,6.0,68,0.00,,,0.02,517.0,meteohub,2013-05-21 20:51:00,
2013-05-21 16:57:00,83.3,72.5,29.96,SW,234,2.0,6.0,70,0.00,,,0.02,541.0,meteohub,2013-05-21 20:57:00,
2013-05-21 17:03:00,83.1,72.7,29.95,South,186,1.0,6.0,71,0.00,,,0.02,561.0,meteohub,2013-05-21 21:03:00,
2013-05-21 17:10:00,82.8,72.9,29.96,South,175,0.0,5.0,72,0.00,,,0.02,262.0,meteohub,2013-05-21 21:10:00,
2013-05-21 17:16:00,82.6,73.8,29.95,SE,133,0.0,5.0,75,0.00,,,0.02,613.0,meteohub,2013-05-21 21:16:00,
2013-05-21 17:22:00,82.8,73.2,29.95,SSW,196,0.0,5.0,73,0.00,,,0.02,578.0,meteohub,2013-05-21 21:22:00,
2013-05-21 17:28:00,82.9,73.8,29.95,NE,56,0.0,4.0,74,0.00,,,0.02,575.0,meteohub,2013-05-21 21:28:00,
2013-05-21 17:34:00,82.8,73.6,29.95,South,188,0.0,4.0,74,0.00,,,0.02,163.0,meteohub,2013-05-21 21:34:00,
2013-05-21 17:40:00,82.2,73.6,29.94,South,190,0.0,4.0,75,0.00,,,0.02,142.0,meteohub,2013-05-21 21:40:00,
2013-05-21 17:47:00,81.9,73.6,29.94,South,190,0.0,4.0,76,0.00,,,0.02,513.0,meteohub,2013-05-21 21:47:00,
2013-05-21 17:52:00,82.0,73.4,29.94,SSW,201,2.0,4.0,75,0.00,,,0.02,461.0,meteohub,2013-05-21 21:52:00,
2013-05-21 17:57:00,81.9,72.7,29.94,ENE,71,0.0,4.0,74,0.00,,,0.02,237.0,meteohub,2013-05-21 21:57:00,
2013-05-21 18:02:00,81.7,72.5,29.94,South,191,3.0,4.0,74,0.00,,,0.02,172.0,meteohub,2013-05-21 22:02:00,
2013-05-21 18:08:00,82.0,72.9,29.94,NE,44,0.0,4.0,74,0.00,,,0.02,218.0,meteohub,2013-05-21 22:08:00,
2013-05-21 18:14:00,81.9,71.6,29.94,ENE,64,2.0,4.0,71,0.00,,,0.02,93.0,meteohub,2013-05-21 22:14:00,
2013-05-21 18:21:00,81.7,71.8,29.94,NNW,344,1.0,5.0,72,0.00,,,0.02,79.0,meteohub,2013-05-21 22:21:00,
2013-05-21 18:27:00,81.3,71.8,29.95,ENE,57,0.0,5.0,73,0.00,,,0.02,72.0,meteohub,2013-05-21 22:27:00,
2013-05-21 18:32:00,81.0,71.4,29.95,ENE,57,0.0,5.0,73,0.00,,,0.02,47.0,meteohub,2013-05-21 22:32:00,
2013-05-21 18:37:00,80.8,71.8,29.95,ENE,57,0.0,2.0,74,0.00,,,0.02,107.0,meteohub,2013-05-21 22:37:00,
2013-05-21 18:42:00,80.4,71.4,29.96,NNE,23,0.0,2.0,74,0.00,,,0.02,72.0,meteohub,2013-05-21 22:42:00,
2013-05-21 18:47:00,80.2,71.2,29.95,ESE,114,2.0,4.0,74,0.00,,,0.02,51.0,meteohub,2013-05-21 22:47:00,
2013-05-21 18:52:00,80.1,70.7,29.96,ENE,77,0.0,4.0,73,0.00,,,0.02,54.0,meteohub,2013-05-21 22:52:00,
2013-05-21 18:57:00,79.7,69.8,29.96,NE,37,0.0,3.0,72,0.00,,,0.02,51.0,meteohub,2013-05-21 22:57:00,
2013-05-21 19:07:00,79.3,70.3,29.96,NE,37,0.0,3.0,74,0.00,,,0.02,19.0,meteohub,2013-05-21 23:07:00,
2013-05-21 19:12:00,79.2,70.2,29.96,ESE,122,0.0,3.0,74,0.00,,,0.02,12.0,meteohub,2013-05-21 23:12:00,
2013-05-21 19:17:00,79.0,70.0,29.96,ESE,122,0.0,4.0,74,0.00,,,0.02,11.0,meteohub,2013-05-21 23:17:00,
2013-05-21 19:22:00,78.6,70.0,29.97,ESE,122,0.0,4.0,75,0.00,,,0.02,11.0,meteohub,2013-05-21 23:22:00,
2013-05-21 19:27:00,78.4,69.8,29.97,SE,128,0.0,4.0,75,0.00,,,0.02,11.0,meteohub,2013-05-21 23:27:00,
2013-05-21 19:32:00,78.1,70.0,29.98,SE,128,0.0,4.0,76,0.00,,,0.02,11.0,meteohub,2013-05-21 23:32:00,
2013-05-21 19:37:00,77.7,70.0,29.98,South,173,1.0,2.0,77,0.00,,,0.02,9.0,meteohub,2013-05-21 23:37:00,
2013-05-21 19:43:00,77.5,69.8,29.98,South,173,0.0,2.0,77,0.00,,,0.02,7.0,meteohub,2013-05-21 23:43:00,
2013-05-21 19:49:00,77.2,69.4,29.99,South,173,0.0,1.0,77,0.00,,,0.02,7.0,meteohub,2013-05-21 23:49:00,
2013-05-21 19:55:00,76.8,69.4,29.99,South,173,0.0,1.0,78,0.00,,,0.02,7.0,meteohub,2013-05-21 23:55:00,
2013-05-21 20:01:00,76.6,68.5,29.99,SE,130,0.0,1.0,76,0.00,,,0.02,5.0,meteohub,2013-05-22 00:01:00,
2013-05-21 20:07:00,76.3,68.2,29.99,SE,130,0.0,6.0,76,0.00,,,0.02,0.0,meteohub,2013-05-22 00:07:00,
2013-05-21 20:12:00,75.9,67.8,29.99,SE,130,0.0,6.0,76,0.00,,,0.00,0.0,meteohub,2013-05-22 00:12:00,
2013-05-21 20:17:00,75.7,67.3,29.99,SE,130,0.0,1.0,75,0.00,,,0.00,0.0,meteohub,2013-05-22 00:17:00,
2013-05-21 20:22:00,75.6,67.5,29.99,SE,130,0.0,1.0,76,0.00,,,0.00,0.0,meteohub,2013-05-22 00:22:00,
2013-05-21 20:27:00,75.4,67.3,29.99,SE,130,0.0,1.0,76,0.00,,,0.00,0.0,meteohub,2013-05-22 00:27:00,
2013-05-21 20:32:00,75.4,67.3,30.00,SE,130,0.0,1.0,76,0.00,,,0.00,0.0,meteohub,2013-05-22 00:32:00,
2013-05-21 20:38:00,75.0,67.3,30.00,SE,130,0.0,0.0,77,0.00,,,0.00,0.0,meteohub,2013-05-22 00:38:00,
2013-05-21 20:44:00,74.8,67.1,29.99,SE,130,0.0,0.0,77,0.00,,,0.00,0.0,meteohub,2013-05-22 00:44:00,
2013-05-21 20:51:00,74.5,67.1,29.99,SE,130,0.0,0.0,78,0.00,,,0.00,0.0,meteohub,2013-05-22 00:51:00,
2013-05-21 20:57:00,74.1,66.7,29.99,SE,130,0.0,0.0,78,0.00,,,0.00,0.0,meteohub,2013-05-22 00:57:00,
2013-05-21 21:02:00,73.9,67.1,29.99,SE,130,0.0,0.0,79,0.00,,,0.00,0.0,meteohub,2013-05-22 01:02:00,
2013-05-21 21:07:00,73.8,66.9,29.99,SE,130,0.0,0.0,79,0.00,,,0.00,0.0,meteohub,2013-05-22 01:07:00,
2013-05-21 21:12:00,73.6,66.7,29.99,SE,130,0.0,0.0,79,0.00,,,0.00,0.0,meteohub,2013-05-22 01:12:00,
2013-05-21 21:17:00,73.2,66.7,29.99,SE,130,0.0,0.0,80,0.00,,,0.00,0.0,meteohub,2013-05-22 01:17:00,
2013-05-21 21:22:00,73.0,66.6,29.99,SE,130,0.0,0.0,80,0.00,,,0.00,0.0,meteohub,2013-05-22 01:22:00,
2013-05-21 21:27:00,72.9,66.7,29.99,SE,130,0.0,0.0,81,0.00,,,0.00,0.0,meteohub,2013-05-22 01:27:00,
2013-05-21 21:32:00,72.7,66.9,29.99,SE,130,0.0,0.0,82,0.00,,,0.00,0.0,meteohub,2013-05-22 01:32:00,
2013-05-21 21:37:00,72.3,66.9,29.98,SE,130,0.0,0.0,83,0.00,,,0.00,0.0,meteohub,2013-05-22 01:37:00,
2013-05-21 21:42:00,72.1,66.7,29.98,SE,130,0.0,0.0,83,0.00,,,0.00,0.0,meteohub,2013-05-22 01:42:00,
2013-05-21 21:47:00,72.0,66.6,29.98,SE,130,0.0,0.0,83,0.00,,,0.00,0.0,meteohub,2013-05-22 01:47:00,
2013-05-21 21:52:00,72.0,66.9,29.98,SE,130,0.0,0.0,84,0.00,,,0.00,0.0,meteohub,2013-05-22 01:52:00,
2013-05-21 21:57:00,71.6,66.9,29.98,SE,130,0.0,0.0,85,0.00,,,0.00,0.0,meteohub,2013-05-22 01:57:00,
2013-05-21 22:02:00,71.4,66.7,29.98,SE,130,0.0,0.0,85,0.00,,,0.00,0.0,meteohub,2013-05-22 02:02:00,
2013-05-21 22:07:00,71.2,66.9,29.98,SE,130,0.0,0.0,86,0.00,,,0.00,0.0,meteohub,2013-05-22 02:07:00,
2013-05-21 22:14:00,71.1,66.7,29.98,SE,130,0.0,0.0,86,0.00,,,0.00,0.0,meteohub,2013-05-22 02:14:00,
2013-05-21 22:20:00,70.9,66.7,29.98,SE,130,0.0,0.0,87,0.00,,,0.00,0.0,meteohub,2013-05-22 02:20:00,
2013-05-21 22:26:00,70.7,66.6,29.98,SE,130,0.0,0.0,87,0.00,,,0.00,0.0,meteohub,2013-05-22 02:26:00,
2013-05-21 22:32:00,70.5,66.4,29.98,SE,130,0.0,0.0,87,0.00,,,0.00,0.0,meteohub,2013-05-22 02:32:00,
2013-05-21 22:37:00,70.5,66.7,29.98,SE,130,0.0,0.0,88,0.00,,,0.00,0.0,meteohub,2013-05-22 02:37:00,
2013-05-21 22:42:00,70.3,66.9,29.98,SE,130,0.0,0.0,89,0.00,,,0.00,0.0,meteohub,2013-05-22 02:42:00,
2013-05-21 22:47:00,70.2,66.7,29.98,SE,130,0.0,0.0,89,0.00,,,0.00,0.0,meteohub,2013-05-22 02:47:00,
2013-05-21 22:52:00,70.2,66.7,29.98,SE,130,0.0,0.0,89,0.00,,,0.00,0.0,meteohub,2013-05-22 02:52:00,
2013-05-21 22:57:00,70.0,66.6,29.98,SE,130,0.0,0.0,89,0.00,,,0.00,0.0,meteohub,2013-05-22 02:57:00,
2013-05-21 23:03:00,70.0,66.9,29.98,SE,130,0.0,0.0,90,0.00,,,0.00,0.0,meteohub,2013-05-22 03:03:00,
2013-05-21 23:09:00,69.6,66.6,29.98,SE,130,0.0,0.0,90,0.00,,,0.00,0.0,meteohub,2013-05-22 03:09:00,
2013-05-21 23:15:00,69.6,66.6,29.98,SE,130,0.0,0.0,90,0.00,,,0.00,0.0,meteohub,2013-05-22 03:15:00,
2013-05-21 23:22:00,69.6,66.9,29.98,SE,130,0.0,0.0,91,0.00,,,0.00,0.0,meteohub,2013-05-22 03:22:00,
2013-05-21 23:27:00,69.4,66.7,29.98,SE,130,0.0,0.0,91,0.00,,,0.00,0.0,meteohub,2013-05-22 03:27:00,
2013-05-21 23:32:00,69.4,66.7,29.98,SE,130,0.0,0.0,91,0.00,,,0.00,0.0,meteohub,2013-05-22 03:32:00,
2013-05-21 23:37:00,69.4,67.1,29.98,SE,130,0.0,0.0,92,0.00,,,0.00,0.0,meteohub,2013-05-22 03:37:00,
2013-05-21 23:42:00,69.4,67.1,29.98,SE,130,0.0,0.0,92,0.00,,,0.00,0.0,meteohub,2013-05-22 03:42:00,
2013-05-21 23:47:00,69.3,66.9,29.97,SE,130,0.0,0.0,92,0.00,,,0.00,0.0,meteohub,2013-05-22 03:47:00,
2013-05-21 23:52:00,69.3,66.9,29.97,SE,130,0.0,0.0,92,0.00,,,0.00,0.0,meteohub,2013-05-22 03:52:00,
2013-05-21 23:57:00,69.3,66.9,29.97,SE,130,0.0,0.0,92,0.00,,,0.00,0.0,meteohub,2013-05-22 03:57:00,